sensor_id;sensor_type;location;lat;lon;timestamp;pressure;altitude;pressure_sealevel;temperature;humidity
39435;BME280;66825;51.880;-0.518;2023-03-15T00:01:37;100403.78;;;15.18;38.27
39435;BME280;66825;51.880;-0.518;2023-03-15T00:04:02;100417.53;;;15.27;38.64
39435;BME280;66825;51.880;-0.518;2023-03-15T00:06:33;100427.59;;;15.26;38.40
39435;BME280;66825;51.880;-0.518;2023-03-15T00:08:59;100412.25;;;15.11;38.43
39435;BME280;66825;51.880;-0.518;2023-03-15T00:11:27;100427.06;;;15.24;38.47
39435;BME280;66825;51.880;-0.518;2023-03-15T00:13:55;100424.63;;;15.22;38.49
39435;BME280;66825;51.880;-0.518;2023-03-15T00:16:21;100342.84;;;14.65;38.50
39435;BME280;66825;51.880;-0.518;2023-03-15T00:18:53;100422.53;;;15.14;38.65
39435;BME280;66825;51.880;-0.518;2023-03-15T00:21:19;100413.38;;;15.05;38.52
39435;BME280;66825;51.880;-0.518;2023-03-15T00:23:45;100432.66;;;15.03;38.46
39435;BME280;66825;51.880;-0.518;2023-03-15T00:26:11;100458.84;;;15.18;38.61
39435;BME280;66825;51.880;-0.518;2023-03-15T00:28:37;100436.13;;;15.09;38.69
39435;BME280;66825;51.880;-0.518;2023-03-15T00:31:04;100458.31;;;15.16;38.83
39435;BME280;66825;51.880;-0.518;2023-03-15T00:33:29;100460.25;;;15.16;38.79
39435;BME280;66825;51.880;-0.518;2023-03-15T00:36:02;100380.56;;;14.61;38.70
39435;BME280;66825;51.880;-0.518;2023-03-15T00:38:28;100366.03;;;14.47;38.71
39435;BME280;66825;51.880;-0.518;2023-03-15T00:40:54;100463.50;;;15.13;38.80
39435;BME280;66825;51.880;-0.518;2023-03-15T00:43:19;100438.44;;;14.91;38.75
39435;BME280;66825;51.880;-0.518;2023-03-15T00:45:44;100440.81;;;14.98;38.62
39435;BME280;66825;51.880;-0.518;2023-03-15T00:48:10;100437.69;;;14.81;38.78
39435;BME280;66825;51.880;-0.518;2023-03-15T00:50:35;100483.06;;;15.09;38.71
39435;BME280;66825;51.880;-0.518;2023-03-15T00:53:01;100426.91;;;14.70;38.60
39435;BME280;66825;51.880;-0.518;2023-03-15T00:55:26;100468.72;;;15.04;38.72
39435;BME280;66825;51.880;-0.518;2023-03-15T00:57:52;100445.78;;;14.86;38.59
39435;BME280;66825;51.880;-0.518;2023-03-15T01:00:20;100408.28;;;14.53;38.73
39435;BME280;66825;51.880;-0.518;2023-03-15T01:02:48;100491.25;;;15.04;38.96
39435;BME280;66825;51.880;-0.518;2023-03-15T01:05:15;100476.09;;;14.98;38.58
39435;BME280;66825;51.880;-0.518;2023-03-15T01:07:40;100492.63;;;15.02;38.79
39435;BME280;66825;51.880;-0.518;2023-03-15T01:10:06;100458.31;;;14.82;38.85
39435;BME280;66825;51.880;-0.518;2023-03-15T01:12:33;100472.09;;;14.90;38.72
39435;BME280;66825;51.880;-0.518;2023-03-15T01:14:59;100488.31;;;15.01;38.83
39435;BME280;66825;51.880;-0.518;2023-03-15T01:17:25;100402.94;;;14.38;38.93
39435;BME280;66825;51.880;-0.518;2023-03-15T01:19:51;100466.72;;;14.80;38.92
39435;BME280;66825;51.880;-0.518;2023-03-15T01:22:17;100490.78;;;14.97;39.19
39435;BME280;66825;51.880;-0.518;2023-03-15T01:24:43;100499.16;;;14.96;38.73
39435;BME280;66825;51.880;-0.518;2023-03-15T01:27:08;100402.41;;;14.36;38.88
39435;BME280;66825;51.880;-0.518;2023-03-15T01:29:33;100502.16;;;14.94;38.86
39435;BME280;66825;51.880;-0.518;2023-03-15T01:31:59;100500.53;;;14.93;38.78
39435;BME280;66825;51.880;-0.518;2023-03-15T01:34:24;100402.72;;;14.29;38.86
39435;BME280;66825;51.880;-0.518;2023-03-15T01:36:50;100502.72;;;14.91;38.79
39435;BME280;66825;51.880;-0.518;2023-03-15T01:39:19;100512.81;;;14.85;38.87
39435;BME280;66825;51.880;-0.518;2023-03-15T01:41:45;100446.63;;;14.31;38.70
39435;BME280;66825;51.880;-0.518;2023-03-15T01:44:16;100471.50;;;14.43;38.97
39435;BME280;66825;51.880;-0.518;2023-03-15T01:46:42;100527.75;;;14.83;38.85
39435;BME280;66825;51.880;-0.518;2023-03-15T01:49:28;100440.13;;;14.27;39.08
39435;BME280;66825;51.880;-0.518;2023-03-15T01:52:09;100544.53;;;14.85;38.95
39435;BME280;66825;51.880;-0.518;2023-03-15T01:54:43;100442.31;;;14.20;38.80
39435;BME280;66825;51.880;-0.518;2023-03-15T01:57:16;100562.72;;;14.84;38.97
39435;BME280;66825;51.880;-0.518;2023-03-15T01:59:53;100524.56;;;14.60;39.12
39435;BME280;66825;51.880;-0.518;2023-03-15T02:02:21;100532.41;;;14.61;39.12
39435;BME280;66825;51.880;-0.518;2023-03-15T02:04:53;100568.44;;;14.83;39.17
39435;BME280;66825;51.880;-0.518;2023-03-15T02:07:24;100426.41;;;13.92;39.14
39435;BME280;66825;51.880;-0.518;2023-03-15T02:10:02;100549.78;;;14.71;39.31
39435;BME280;66825;51.880;-0.518;2023-03-15T02:12:31;100565.47;;;14.79;39.10
39435;BME280;66825;51.880;-0.518;2023-03-15T02:14:59;100463.47;;;14.12;39.14
39435;BME280;66825;51.880;-0.518;2023-03-15T02:17:36;100561.13;;;14.78;39.45
39435;BME280;66825;51.880;-0.518;2023-03-15T02:22:46;100556.81;;;14.72;39.36
39435;BME280;66825;51.880;-0.518;2023-03-15T02:27:59;100524.84;;;14.53;39.01
39435;BME280;66825;51.880;-0.518;2023-03-15T02:30:25;100560.03;;;14.74;39.28
39435;BME280;66825;51.880;-0.518;2023-03-15T02:32:51;100510.25;;;14.44;39.13
39435;BME280;66825;51.880;-0.518;2023-03-15T02:35:25;100554.66;;;14.69;39.07
39435;BME280;66825;51.880;-0.518;2023-03-15T02:37:51;100555.44;;;14.69;39.18
39435;BME280;66825;51.880;-0.518;2023-03-15T02:40:19;100551.41;;;14.67;39.24
39435;BME280;66825;51.880;-0.518;2023-03-15T02:42:45;100557.91;;;14.71;39.19
39435;BME280;66825;51.880;-0.518;2023-03-15T02:45:13;100458.66;;;13.99;39.21
39435;BME280;66825;51.880;-0.518;2023-03-15T02:47:38;100576.34;;;14.69;39.13
39435;BME280;66825;51.880;-0.518;2023-03-15T02:50:05;100572.84;;;14.68;39.31
39435;BME280;66825;51.880;-0.518;2023-03-15T02:52:32;100493.81;;;14.20;39.02
39435;BME280;66825;51.880;-0.518;2023-03-15T02:54:58;100540.06;;;14.49;39.21
39435;BME280;66825;51.880;-0.518;2023-03-15T02:57:23;100464.31;;;14.03;39.32
39435;BME280;66825;51.880;-0.518;2023-03-15T02:59:49;100560.31;;;14.62;39.16
39435;BME280;66825;51.880;-0.518;2023-03-15T03:02:15;100564.41;;;14.59;39.15
39435;BME280;66825;51.880;-0.518;2023-03-15T03:04:41;100576.34;;;14.64;39.25
39435;BME280;66825;51.880;-0.518;2023-03-15T03:07:06;100573.63;;;14.64;39.50
39435;BME280;66825;51.880;-0.518;2023-03-15T03:09:32;100549.78;;;14.50;39.38
39435;BME280;66825;51.880;-0.518;2023-03-15T03:11:57;100568.47;;;14.62;39.32
39435;BME280;66825;51.880;-0.518;2023-03-15T03:14:23;100562.53;;;14.60;39.09
39435;BME280;66825;51.880;-0.518;2023-03-15T03:16:50;100571.75;;;14.59;39.36
39435;BME280;66825;51.880;-0.518;2023-03-15T03:19:16;100569.03;;;14.59;39.26
39435;BME280;66825;51.880;-0.518;2023-03-15T03:21:41;100577.16;;;14.59;39.54
39435;BME280;66825;51.880;-0.518;2023-03-15T03:24:14;100505.47;;;14.10;39.39
39435;BME280;66825;51.880;-0.518;2023-03-15T03:26:40;100592.91;;;14.57;39.40
39435;BME280;66825;51.880;-0.518;2023-03-15T03:29:05;100570.97;;;14.43;39.46
39435;BME280;66825;51.880;-0.518;2023-03-15T03:31:31;100600.22;;;14.56;39.00
39435;BME280;66825;51.880;-0.518;2023-03-15T03:33:58;100599.41;;;14.56;39.23
39435;BME280;66825;51.880;-0.518;2023-03-15T03:36:25;100594.00;;;14.51;39.14
39435;BME280;66825;51.880;-0.518;2023-03-15T03:38:51;100575.34;;;14.34;39.46
39435;BME280;66825;51.880;-0.518;2023-03-15T03:41:18;100599.44;;;14.45;39.17
39435;BME280;66825;51.880;-0.518;2023-03-15T03:43:43;100612.69;;;14.52;39.30
39435;BME280;66825;51.880;-0.518;2023-03-15T03:46:09;100573.19;;;14.25;39.20
39435;BME280;66825;51.880;-0.518;2023-03-15T03:48:34;100510.94;;;13.79;39.28
39435;BME280;66825;51.880;-0.518;2023-03-15T03:51:00;100621.38;;;14.44;39.18
39435;BME280;66825;51.880;-0.518;2023-03-15T03:53:25;100615.97;;;14.49;39.26
39435;BME280;66825;51.880;-0.518;2023-03-15T03:55:51;100609.72;;;14.49;39.25
39435;BME280;66825;51.880;-0.518;2023-03-15T03:58:19;100625.19;;;14.48;39.21
39435;BME280;66825;51.880;-0.518;2023-03-15T04:00:44;100615.72;;;14.45;39.15
39435;BME280;66825;51.880;-0.518;2023-03-15T04:03:10;100597.28;;;14.37;39.26
39435;BME280;66825;51.880;-0.518;2023-03-15T04:05:36;100598.91;;;14.33;39.54
39435;BME280;66825;51.880;-0.518;2023-03-15T04:08:01;100573.19;;;14.15;39.10
39435;BME280;66825;51.880;-0.518;2023-03-15T04:10:27;100624.38;;;14.42;39.27
39435;BME280;66825;51.880;-0.518;2023-03-15T04:12:53;100583.47;;;14.28;39.42
39435;BME280;66825;51.880;-0.518;2023-03-15T04:15:19;100604.34;;;14.38;39.05
39435;BME280;66825;51.880;-0.518;2023-03-15T04:17:47;100434.09;;;13.28;39.52
39435;BME280;66825;51.880;-0.518;2023-03-15T04:20:13;100596.47;;;14.42;39.19
39435;BME280;66825;51.880;-0.518;2023-03-15T04:22:42;100564.81;;;14.11;39.19
39435;BME280;66825;51.880;-0.518;2023-03-15T04:25:20;100519.09;;;13.74;39.48
39435;BME280;66825;51.880;-0.518;2023-03-15T04:27:46;100616.53;;;14.36;39.48
39435;BME280;66825;51.880;-0.518;2023-03-15T04:30:26;100606.00;;;14.24;39.55
39435;BME280;66825;51.880;-0.518;2023-03-15T04:32:53;100628.75;;;14.38;39.27
39435;BME280;66825;51.880;-0.518;2023-03-15T04:35:32;100533.72;;;13.73;39.35
39435;BME280;66825;51.880;-0.518;2023-03-15T04:37:58;100577.03;;;14.04;39.50
39435;BME280;66825;51.880;-0.518;2023-03-15T04:40:24;100642.53;;;14.37;39.37
39435;BME280;66825;51.880;-0.518;2023-03-15T04:42:54;100631.69;;;14.37;39.52
39435;BME280;66825;51.880;-0.518;2023-03-15T04:45:24;100604.09;;;14.19;39.23
39435;BME280;66825;51.880;-0.518;2023-03-15T04:47:51;100603.84;;;14.16;39.39
39435;BME280;66825;51.880;-0.518;2023-03-15T04:50:17;100626.00;;;14.33;39.11
39435;BME280;66825;51.880;-0.518;2023-03-15T04:52:43;100630.66;;;14.27;39.20
39435;BME280;66825;51.880;-0.518;2023-03-15T04:55:08;100632.50;;;14.32;39.40
39435;BME280;66825;51.880;-0.518;2023-03-15T04:57:34;100554.00;;;13.91;39.43
39435;BME280;66825;51.880;-0.518;2023-03-15T04:59:59;100589.47;;;14.10;39.07
39435;BME280;66825;51.880;-0.518;2023-03-15T05:02:25;100628.47;;;14.29;39.28
39435;BME280;66825;51.880;-0.518;2023-03-15T05:04:50;100521.00;;;13.58;39.48
39435;BME280;66825;51.880;-0.518;2023-03-15T05:07:16;100634.16;;;14.28;39.10
39435;BME280;66825;51.880;-0.518;2023-03-15T05:09:41;100521.78;;;13.58;39.10
39435;BME280;66825;51.880;-0.518;2023-03-15T05:12:10;100587.31;;;13.96;39.45
39435;BME280;66825;51.880;-0.518;2023-03-15T05:14:36;100631.97;;;14.25;39.41
39435;BME280;66825;51.880;-0.518;2023-03-15T05:17:01;100640.94;;;14.25;39.07
39435;BME280;66825;51.880;-0.518;2023-03-15T05:19:28;100609.25;;;14.00;39.11
39435;BME280;66825;51.880;-0.518;2023-03-15T05:21:54;100645.81;;;14.23;39.43
39435;BME280;66825;51.880;-0.518;2023-03-15T05:24:20;100661.00;;;14.24;39.46
39435;BME280;66825;51.880;-0.518;2023-03-15T05:26:47;100640.41;;;14.23;39.11
39435;BME280;66825;51.880;-0.518;2023-03-15T05:29:13;100655.03;;;14.22;39.60
39435;BME280;66825;51.880;-0.518;2023-03-15T05:31:39;100565.66;;;13.65;39.14
39435;BME280;66825;51.880;-0.518;2023-03-15T05:34:05;100630.91;;;14.10;39.26
39435;BME280;66825;51.880;-0.518;2023-03-15T05:36:31;100616.84;;;13.98;39.14
39435;BME280;66825;51.880;-0.518;2023-03-15T05:38:57;100531.25;;;13.45;39.24
39435;BME280;66825;51.880;-0.518;2023-03-15T05:41:22;100646.09;;;14.17;39.04
39435;BME280;66825;51.880;-0.518;2023-03-15T05:43:48;100645.81;;;14.18;39.16
39435;BME280;66825;51.880;-0.518;2023-03-15T05:46:14;100652.31;;;14.17;39.51
39435;BME280;66825;51.880;-0.518;2023-03-15T05:48:39;100662.38;;;14.17;39.35
39435;BME280;66825;51.880;-0.518;2023-03-15T05:51:05;100592.72;;;13.65;39.26
39435;BME280;66825;51.880;-0.518;2023-03-15T05:53:30;100597.06;;;13.61;39.08
39435;BME280;66825;51.880;-0.518;2023-03-15T05:55:56;100673.47;;;14.10;39.41
39435;BME280;66825;51.880;-0.518;2023-03-15T05:58:21;100674.53;;;14.14;39.57
39435;BME280;66825;51.880;-0.518;2023-03-15T06:00:47;100676.44;;;14.13;39.56
39435;BME280;66825;51.880;-0.518;2023-03-15T06:03:14;100653.69;;;14.04;39.61
39435;BME280;66825;51.880;-0.518;2023-03-15T06:05:40;100662.38;;;14.01;39.14
39435;BME280;66825;51.880;-0.518;2023-03-15T06:08:06;100682.16;;;14.12;39.05
39435;BME280;66825;51.880;-0.518;2023-03-15T06:10:31;100665.06;;;14.01;39.41
39435;BME280;66825;51.880;-0.518;2023-03-15T06:12:58;100681.59;;;14.10;39.10
39435;BME280;66825;51.880;-0.518;2023-03-15T06:15:24;100676.44;;;14.08;39.34
39435;BME280;66825;51.880;-0.518;2023-03-15T06:17:49;100669.94;;;14.04;39.11
39435;BME280;66825;51.880;-0.518;2023-03-15T06:20:15;100686.47;;;14.08;39.40
39435;BME280;66825;51.880;-0.518;2023-03-15T06:22:40;100680.25;;;14.07;39.48
39435;BME280;66825;51.880;-0.518;2023-03-15T06:25:07;100658.56;;;13.87;39.32
39435;BME280;66825;51.880;-0.518;2023-03-15T06:27:32;100691.34;;;14.06;39.40
39435;BME280;66825;51.880;-0.518;2023-03-15T06:29:58;100697.84;;;14.05;39.24
39435;BME280;66825;51.880;-0.518;2023-03-15T06:32:24;100699.72;;;14.04;39.62
39435;BME280;66825;51.880;-0.518;2023-03-15T06:34:49;100700.81;;;14.03;39.44
39435;BME280;66825;51.880;-0.518;2023-03-15T06:37:15;100687.53;;;14.02;39.44
39435;BME280;66825;51.880;-0.518;2023-03-15T06:39:41;100562.59;;;13.26;39.31
39435;BME280;66825;51.880;-0.518;2023-03-15T06:42:06;100683.19;;;14.01;39.47
39435;BME280;66825;51.880;-0.518;2023-03-15T06:44:35;100556.38;;;13.15;39.48
39435;BME280;66825;51.880;-0.518;2023-03-15T06:47:01;100591.31;;;13.32;39.39
39435;BME280;66825;51.880;-0.518;2023-03-15T06:49:27;100694.31;;;13.99;39.17
39435;BME280;66825;51.880;-0.518;2023-03-15T06:51:52;100627.09;;;13.49;39.59
39435;BME280;66825;51.880;-0.518;2023-03-15T06:54:18;100704.34;;;13.98;39.48
39435;BME280;66825;51.880;-0.518;2023-03-15T06:56:43;100685.38;;;13.83;39.34
39435;BME280;66825;51.880;-0.518;2023-03-15T06:59:08;100678.31;;;13.82;39.52
39435;BME280;66825;51.880;-0.518;2023-03-15T07:01:34;100679.13;;;13.77;39.35
39435;BME280;66825;51.880;-0.518;2023-03-15T07:03:59;100686.16;;;13.84;39.09
39435;BME280;66825;51.880;-0.518;2023-03-15T07:06:25;100680.75;;;13.78;39.46
39435;BME280;66825;51.880;-0.518;2023-03-15T07:08:52;100607.53;;;13.27;38.92
39435;BME280;66825;51.880;-0.518;2023-03-15T07:11:18;100696.72;;;13.80;39.58
39435;BME280;66825;51.880;-0.518;2023-03-15T07:13:45;100717.34;;;13.91;39.66
39435;BME280;66825;51.880;-0.518;2023-03-15T07:16:10;100727.06;;;13.92;39.42
39435;BME280;66825;51.880;-0.518;2023-03-15T07:18:36;100630.25;;;13.31;39.06
39435;BME280;66825;51.880;-0.518;2023-03-15T07:21:03;100672.84;;;13.56;39.44
39435;BME280;66825;51.880;-0.518;2023-03-15T07:23:30;100709.19;;;13.76;39.12
39435;BME280;66825;51.880;-0.518;2023-03-15T07:25:55;100727.63;;;13.89;39.38
39435;BME280;66825;51.880;-0.518;2023-03-15T07:28:22;100680.97;;;13.56;39.25
39435;BME280;66825;51.880;-0.518;2023-03-15T07:30:56;100735.19;;;13.87;39.53
39435;BME280;66825;51.880;-0.518;2023-03-15T07:33:22;100740.09;;;13.90;39.47
39435;BME280;66825;51.880;-0.518;2023-03-15T07:35:49;100679.09;;;13.57;39.02
39435;BME280;66825;51.880;-0.518;2023-03-15T07:38:15;100721.38;;;13.84;39.39
39435;BME280;66825;51.880;-0.518;2023-03-15T07:40:41;100717.59;;;13.85;39.25
39435;BME280;66825;51.880;-0.518;2023-03-15T07:43:06;100744.44;;;14.02;39.31
39435;BME280;66825;51.880;-0.518;2023-03-15T07:45:32;100723.84;;;14.01;39.63
39435;BME280;66825;51.880;-0.518;2023-03-15T07:47:59;100694.56;;;13.87;39.10
39435;BME280;66825;51.880;-0.518;2023-03-15T07:50:25;100728.47;;;14.16;39.13
39435;BME280;66825;51.880;-0.518;2023-03-15T07:52:51;100718.44;;;14.21;38.97
39435;BME280;66825;51.880;-0.518;2023-03-15T07:55:17;100619.00;;;13.65;39.12
39435;BME280;66825;51.880;-0.518;2023-03-15T07:57:42;100641.47;;;13.86;38.94
39435;BME280;66825;51.880;-0.518;2023-03-15T08:00:08;100704.38;;;14.35;38.93
39435;BME280;66825;51.880;-0.518;2023-03-15T08:02:36;100695.94;;;14.26;39.21
39435;BME280;66825;51.880;-0.518;2023-03-15T08:05:01;100612.25;;;13.88;38.72
39435;BME280;66825;51.880;-0.518;2023-03-15T08:07:29;100700.25;;;14.48;38.76
39435;BME280;66825;51.880;-0.518;2023-03-15T08:09:55;100599.22;;;13.85;39.00
39435;BME280;66825;51.880;-0.518;2023-03-15T08:12:23;100707.06;;;14.55;38.96
39435;BME280;66825;51.880;-0.518;2023-03-15T08:14:48;100731.44;;;14.60;38.61
39435;BME280;66825;51.880;-0.518;2023-03-15T08:17:14;100528.81;;;13.49;38.65
39435;BME280;66825;51.880;-0.518;2023-03-15T08:19:40;100713.28;;;14.71;38.78
39435;BME280;66825;51.880;-0.518;2023-03-15T08:22:06;100727.66;;;14.77;38.68
39435;BME280;66825;51.880;-0.518;2023-03-15T08:24:32;100598.41;;;14.05;38.46
39435;BME280;66825;51.880;-0.518;2023-03-15T08:26:57;100705.94;;;14.82;38.41
39435;BME280;66825;51.880;-0.518;2023-03-15T08:29:23;100738.47;;;14.98;38.34
39435;BME280;66825;51.880;-0.518;2023-03-15T08:31:48;100711.63;;;14.96;38.32
39435;BME280;66825;51.880;-0.518;2023-03-15T08:34:14;100650.34;;;14.64;38.48
39435;BME280;66825;51.880;-0.518;2023-03-15T08:36:40;100740.03;;;15.19;38.15
39435;BME280;66825;51.880;-0.518;2023-03-15T08:39:06;100731.59;;;15.26;38.19
39435;BME280;66825;51.880;-0.518;2023-03-15T08:41:33;100738.63;;;15.32;38.30
39435;BME280;66825;51.880;-0.518;2023-03-15T08:43:59;100729.09;;;15.40;38.10
39435;BME280;66825;51.880;-0.518;2023-03-15T08:46:26;100627.56;;;14.81;38.11
39435;BME280;66825;51.880;-0.518;2023-03-15T08:48:52;100723.63;;;15.50;37.93
39435;BME280;66825;51.880;-0.518;2023-03-15T08:51:18;100724.72;;;15.49;37.94
39435;BME280;66825;51.880;-0.518;2023-03-15T08:53:45;100627.75;;;15.00;38.01
39435;BME280;66825;51.880;-0.518;2023-03-15T08:56:10;100628.81;;;15.04;37.97
39435;BME280;66825;51.880;-0.518;2023-03-15T08:58:36;100723.50;;;15.71;37.86
39435;BME280;66825;51.880;-0.518;2023-03-15T09:01:02;100723.72;;;15.80;37.67
39435;BME280;66825;51.880;-0.518;2023-03-15T09:03:29;100719.09;;;15.85;37.75
39435;BME280;66825;51.880;-0.518;2023-03-15T09:05:58;100529.69;;;14.72;37.52
39435;BME280;66825;51.880;-0.518;2023-03-15T09:08:24;100709.81;;;15.92;37.53
39435;BME280;66825;51.880;-0.518;2023-03-15T09:10:56;100699.00;;;15.86;37.70
39435;BME280;66825;51.880;-0.518;2023-03-15T09:13:22;100620.72;;;15.44;37.63
39435;BME280;66825;51.880;-0.518;2023-03-15T09:15:49;100718.34;;;16.14;37.56
39435;BME280;66825;51.880;-0.518;2023-03-15T09:18:16;100713.44;;;16.16;37.61
39435;BME280;66825;51.880;-0.518;2023-03-15T09:20:41;100711.78;;;16.20;38.98
39435;BME280;66825;51.880;-0.518;2023-03-15T09:23:07;100715.03;;;16.23;39.02
39435;BME280;66825;51.880;-0.518;2023-03-15T09:25:32;100722.00;;;16.34;38.58
39435;BME280;66825;51.880;-0.518;2023-03-15T09:27:58;100728.44;;;16.43;38.34
39435;BME280;66825;51.880;-0.518;2023-03-15T09:30:23;100709.22;;;16.34;39.59
39435;BME280;66825;51.880;-0.518;2023-03-15T09:32:49;100723.47;;;16.56;39.94
39435;BME280;66825;51.880;-0.518;2023-03-15T09:35:17;100702.09;;;16.44;38.47
39435;BME280;66825;51.880;-0.518;2023-03-15T09:37:43;100736.09;;;16.71;38.42
39435;BME280;66825;51.880;-0.518;2023-03-15T09:40:19;100704.69;;;16.54;38.72
39435;BME280;66825;51.880;-0.518;2023-03-15T09:48:31;100647.72;;;16.39;39.98
39435;BME280;66825;51.880;-0.518;2023-03-15T09:51:18;100697.69;;;16.77;39.99
39435;BME280;66825;51.880;-0.518;2023-03-15T09:54:17;100732.22;;;17.06;40.22
39435;BME280;66825;51.880;-0.518;2023-03-15T09:56:52;100734.03;;;17.16;39.59
39435;BME280;66825;51.880;-0.518;2023-03-15T09:59:20;100739.69;;;17.20;39.32
39435;BME280;66825;51.880;-0.518;2023-03-15T10:01:51;100741.81;;;17.23;39.19
39435;BME280;66825;51.880;-0.518;2023-03-15T10:04:32;100734.19;;;17.25;39.00
39435;BME280;66825;51.880;-0.518;2023-03-15T10:07:06;100700.75;;;17.19;38.90
39435;BME280;66825;51.880;-0.518;2023-03-15T10:09:36;100751.47;;;17.58;39.08
39435;BME280;66825;51.880;-0.518;2023-03-15T10:17:36;100755.34;;;17.96;38.86
39435;BME280;66825;51.880;-0.518;2023-03-15T10:20:11;100750.03;;;18.04;38.91
39435;BME280;66825;51.880;-0.518;2023-03-15T10:22:48;100684.75;;;17.75;38.30
39435;BME280;66825;51.880;-0.518;2023-03-15T10:25:22;100732.91;;;18.18;38.55
39435;BME280;66825;51.880;-0.518;2023-03-15T10:28:08;100742.56;;;18.29;38.00
39435;BME280;66825;51.880;-0.518;2023-03-15T10:30:37;100749.25;;;18.37;38.30
39435;BME280;66825;51.880;-0.518;2023-03-15T10:33:07;100648.94;;;17.82;38.50
39435;BME280;66825;51.880;-0.518;2023-03-15T10:35:38;100736.50;;;18.32;37.50
39435;BME280;66825;51.880;-0.518;2023-03-15T10:38:21;100732.59;;;18.38;38.36
39435;BME280;66825;51.880;-0.518;2023-03-15T10:40:49;100737.88;;;18.49;38.80
39435;BME280;66825;51.880;-0.518;2023-03-15T10:43:24;100647.94;;;17.97;38.83
39435;BME280;66825;51.880;-0.518;2023-03-15T10:46:09;100751.78;;;18.66;38.58
39435;BME280;66825;51.880;-0.518;2023-03-15T10:49:14;100751.66;;;18.71;38.50
39435;BME280;66825;51.880;-0.518;2023-03-15T10:51:42;100760.91;;;18.76;38.57
39435;BME280;66825;51.880;-0.518;2023-03-15T10:54:19;100750.19;;;18.79;38.13
39435;BME280;66825;51.880;-0.518;2023-03-15T10:59:26;100742.47;;;18.81;37.92
39435;BME280;66825;51.880;-0.518;2023-03-15T11:02:06;100746.84;;;18.82;38.08
39435;BME280;66825;51.880;-0.518;2023-03-15T11:04:42;100744.31;;;18.86;38.05
39435;BME280;66825;51.880;-0.518;2023-03-15T11:07:08;100742.09;;;18.88;37.77
39435;BME280;66825;51.880;-0.518;2023-03-15T11:09:43;100660.06;;;18.37;37.30
39435;BME280;66825;51.880;-0.518;2023-03-15T11:12:14;100739.38;;;18.88;37.40
39435;BME280;66825;51.880;-0.518;2023-03-15T11:14:46;100742.91;;;18.88;37.39
39435;BME280;66825;51.880;-0.518;2023-03-15T11:17:22;100738.53;;;18.87;37.14
39435;BME280;66825;51.880;-0.518;2023-03-15T11:19:53;100740.47;;;18.87;37.24
39435;BME280;66825;51.880;-0.518;2023-03-15T11:22:20;100728.75;;;18.86;37.31
39435;BME280;66825;51.880;-0.518;2023-03-15T11:24:46;100736.94;;;18.86;37.33
39435;BME280;66825;51.880;-0.518;2023-03-15T11:27:13;100718.53;;;18.78;37.30
39435;BME280;66825;51.880;-0.518;2023-03-15T11:29:52;100726.31;;;18.85;37.19
39435;BME280;66825;51.880;-0.518;2023-03-15T11:32:21;100718.13;;;18.85;37.32
39435;BME280;66825;51.880;-0.518;2023-03-15T11:35:34;100712.06;;;18.88;37.23
39435;BME280;66825;51.880;-0.518;2023-03-15T11:38:16;100707.72;;;18.87;37.21
39435;BME280;66825;51.880;-0.518;2023-03-15T11:40:45;100698.81;;;18.81;37.24
39435;BME280;66825;51.880;-0.518;2023-03-15T11:45:59;100707.13;;;18.90;37.42
39435;BME280;66825;51.880;-0.518;2023-03-15T11:48:33;100622.88;;;18.41;37.31
39435;BME280;66825;51.880;-0.518;2023-03-15T11:51:01;100702.19;;;18.92;37.42
39435;BME280;66825;51.880;-0.518;2023-03-15T11:53:33;100627.44;;;18.46;37.28
39435;BME280;66825;51.880;-0.518;2023-03-15T11:56:52;100704.84;;;18.97;37.32
39435;BME280;66825;51.880;-0.518;2023-03-15T11:59:31;100702.69;;;18.94;37.19
39435;BME280;66825;51.880;-0.518;2023-03-15T12:02:00;100684.69;;;18.79;37.38
39435;BME280;66825;51.880;-0.518;2023-03-15T12:07:22;100605.00;;;18.35;37.31
39435;BME280;66825;51.880;-0.518;2023-03-15T12:17:53;100671.56;;;18.95;37.08
39435;BME280;66825;51.880;-0.518;2023-03-15T12:20:56;100661.75;;;18.94;37.21
39435;BME280;66825;51.880;-0.518;2023-03-15T12:23:41;100660.63;;;18.95;37.30
39435;BME280;66825;51.880;-0.518;2023-03-15T12:26:12;100646.34;;;18.84;37.26
39435;BME280;66825;51.880;-0.518;2023-03-15T12:31:25;100660.19;;;18.88;37.25
39435;BME280;66825;51.880;-0.518;2023-03-15T12:34:13;100663.97;;;18.92;37.19
39435;BME280;66825;51.880;-0.518;2023-03-15T12:36:46;100660.13;;;18.93;36.94
39435;BME280;66825;51.880;-0.518;2023-03-15T12:41:40;100661.22;;;18.92;37.32
39435;BME280;66825;51.880;-0.518;2023-03-15T12:44:40;100658.00;;;18.90;37.16
39435;BME280;66825;51.880;-0.518;2023-03-15T12:47:10;100635.81;;;18.78;37.15
39435;BME280;66825;51.880;-0.518;2023-03-15T12:49:43;100657.47;;;18.88;37.20
39435;BME280;66825;51.880;-0.518;2023-03-15T12:54:47;100560.44;;;18.26;37.13
39435;BME280;66825;51.880;-0.518;2023-03-15T12:57:21;100648.38;;;18.79;37.21
39435;BME280;66825;51.880;-0.518;2023-03-15T12:59:51;100627.34;;;18.65;37.14
39435;BME280;66825;51.880;-0.518;2023-03-15T13:02:27;100654.03;;;18.82;37.00
39435;BME280;66825;51.880;-0.518;2023-03-15T13:08:20;100649.47;;;18.78;37.08
39435;BME280;66825;51.880;-0.518;2023-03-15T13:10:52;100584.28;;;18.34;37.19
39435;BME280;66825;51.880;-0.518;2023-03-15T13:16:19;100638.47;;;18.69;37.27
39435;BME280;66825;51.880;-0.518;2023-03-15T13:18:58;100488.63;;;17.70;37.01
39435;BME280;66825;51.880;-0.518;2023-03-15T13:21:48;100636.84;;;18.68;36.99
39435;BME280;66825;51.880;-0.518;2023-03-15T13:25:17;100577.63;;;18.27;37.62
39435;BME280;66825;51.880;-0.518;2023-03-15T13:27:40;100634.44;;;18.66;37.27
39435;BME280;66825;51.880;-0.518;2023-03-15T13:30:41;100631.69;;;18.66;37.25
39435;BME280;66825;51.880;-0.518;2023-03-15T13:33:31;100626.56;;;18.65;37.24
39435;BME280;66825;51.880;-0.518;2023-03-15T13:36:02;100624.94;;;18.64;37.57
39435;BME280;66825;51.880;-0.518;2023-03-15T13:38:44;100514.56;;;18.00;37.62